Time;durP1;ratioP1;P1;durP2;ratioP2;P2;SDS_P1;SDS_P2;PMS_P1;PMS_P2;Temp;Humidity;BMP_temperature;BMP_pressure;BME280_temperature;BME280_humidity;BME280_pressure;Samples;Min_cycle;Max_cycle;Signal;HPM_P1;HPM_P2
2023/08/31 00:01:33;;;;;;;26.75;24.08;;;;;;;-146.87;100.00;60295.22;4939616;29;20178;-42
2023/08/31 00:03:59;;;;;;;25.58;23.13;;;;;;;-146.87;100.00;60295.22;4939031;29;20205;-41
2023/08/31 00:06:25;;;;;;;24.45;22.13;;;;;;;-146.87;100.00;60295.22;4945318;29;20828;-42
2023/08/31 00:08:51;;;;;;;25.67;23.17;;;;;;;-146.87;100.00;60295.22;4937324;29;20183;-42
2023/08/31 00:11:16;;;;;;;28.17;25.40;;;;;;;-146.87;100.00;60295.22;4937733;29;20304;-42
2023/08/31 00:13:42;;;;;;;27.88;25.35;;;;;;;-146.87;100.00;60295.22;4941197;29;20266;-44
2023/08/31 00:16:09;;;;;;;27.48;24.90;;;;;;;-146.87;100.00;60295.22;4942250;29;20274;-41
2023/08/31 00:18:35;;;;;;;25.83;23.40;;;;;;;-146.87;100.00;60295.22;4945903;29;20604;-44
2023/08/31 00:21:02;;;;;;;27.95;25.17;;;;;;;-146.87;100.00;60295.22;4944496;29;20250;-42
2023/08/31 00:23:28;;;;;;;28.50;25.70;;;;;;;-146.87;100.00;60295.22;4940780;29;20203;-40
2023/08/31 00:25:54;;;;;;;29.15;26.38;;;;;;;-146.87;100.00;60295.22;4939502;29;20573;-41
2023/08/31 00:28:19;;;;;;;29.33;26.48;;;;;;;-146.87;100.00;60295.22;4938361;29;20177;-41
2023/08/31 00:30:45;;;;;;;28.88;25.92;;;;;;;-146.87;100.00;60295.22;4933420;29;20535;-45
2023/08/31 00:33:12;;;;;;;29.70;26.65;;;;;;;-146.87;100.00;60295.22;4940600;29;20190;-40
2023/08/31 00:35:43;;;;;;;30.17;27.15;;;;;;;-146.87;100.00;60295.22;4944194;29;20178;-43
2023/08/31 00:38:09;;;;;;;30.38;27.30;;;;;;;-146.87;100.00;60295.22;4944572;29;20721;-42
2023/08/31 00:40:40;;;;;;;29.42;26.45;;;;;;;-146.87;100.00;60295.22;4940721;29;20309;-41
2023/08/31 00:43:07;;;;;;;29.70;26.70;;;;;;;-146.87;100.00;60295.22;4934610;29;20238;-42
2023/08/31 00:45:33;;;;;;;29.65;26.67;;;;;;;-146.87;100.00;60295.22;4941441;29;20587;-43
2023/08/31 00:47:58;;;;;;;28.45;25.67;;;;;;;-146.87;100.00;60295.22;4921613;29;20550;-43
2023/08/31 00:50:25;;;;;;;24.98;22.55;;;;;;;-146.87;100.00;60295.22;4941692;29;20693;-41
2023/08/31 00:52:52;;;;;;;30.30;27.30;;;;;;;-146.87;100.00;60295.22;4924756;29;20190;-42
2023/08/31 00:55:17;;;;;;;30.95;27.77;;;;;;;-146.87;100.00;60295.22;4937841;29;20243;-41
2023/08/31 00:57:44;;;;;;;27.40;24.63;;;;;;;-146.87;100.00;60295.22;4937153;29;20605;-43
2023/08/31 01:00:10;;;;;;;29.73;26.73;;;;;;;-146.87;100.00;60295.22;4930402;29;20223;-42
2023/08/31 01:02:50;;;;;;;30.17;27.08;;;;;;;-146.87;100.00;60295.22;4923151;29;20223;-41
2023/08/31 01:05:29;;;;;;;27.33;24.63;;;;;;;-146.87;100.00;60295.22;4942891;29;20309;-44
2023/08/31 01:08:02;;;;;;;27.35;24.73;;;;;;;-146.87;100.00;60295.22;4930397;29;20191;-43
2023/08/31 01:10:43;;;;;;;28.08;25.25;;;;;;;-146.87;100.00;60295.22;4923307;29;20203;-42
2023/08/31 01:13:31;;;;;;;25.98;23.58;;;;;;;-146.87;100.00;60295.22;4941122;29;20186;-43
2023/08/31 01:16:03;;;;;;;28.38;25.55;;;;;;;-146.87;100.00;60295.22;4923983;29;20187;-41
2023/08/31 01:18:31;;;;;;;29.23;26.42;;;;;;;-146.87;100.00;60295.22;4938031;29;20242;-41
2023/08/31 01:21:27;;;;;;;28.92;25.90;;;;;;;-146.87;100.00;60295.22;4946118;29;20279;-44
2023/08/31 01:23:58;;;;;;;27.33;24.52;;;;;;;-146.87;100.00;60295.22;4940269;29;20250;-44
2023/08/31 01:26:25;;;;;;;27.40;24.45;;;;;;;-146.87;100.00;60295.22;4925284;29;20206;-42
2023/08/31 01:28:52;;;;;;;28.52;25.23;;;;;;;-146.87;100.00;60295.22;4938615;29;20179;-42
2023/08/31 01:31:18;;;;;;;26.90;24.02;;;;;;;-146.87;100.00;60295.22;4926748;29;20191;-43
2023/08/31 01:33:43;;;;;;;26.73;24.00;;;;;;;-146.87;100.00;60295.22;4942810;29;20255;-44
2023/08/31 01:36:18;;;;;;;26.00;23.50;;;;;;;-146.87;100.00;60295.22;4941457;29;20606;-41
2023/08/31 01:38:48;;;;;;;24.90;22.17;;;;;;;-146.87;100.00;60295.22;4936115;29;20214;-46
2023/08/31 01:41:18;;;;;;;24.40;22.10;;;;;;;-146.87;100.00;60295.22;4941338;29;20580;-45
2023/08/31 01:43:44;;;;;;;25.90;23.30;;;;;;;-146.87;100.00;60295.22;4935712;29;20270;-41
2023/08/31 01:46:10;;;;;;;21.77;19.67;;;;;;;-146.87;100.00;60295.22;4919706;29;20614;-41
2023/08/31 01:48:40;;;;;;;23.63;21.23;;;;;;;-146.87;100.00;60295.22;4941945;29;20697;-42
2023/08/31 01:51:10;;;;;;;22.60;20.20;;;;;;;-146.87;100.00;60295.22;4927752;29;20207;-42
2023/08/31 01:53:35;;;;;;;22.90;20.60;;;;;;;-146.87;100.00;60295.22;4941776;29;20179;-43
2023/08/31 01:56:02;;;;;;;22.48;20.38;;;;;;;-146.87;100.00;60295.22;4934010;29;20183;-44
2023/08/31 01:58:27;;;;;;;21.88;19.88;;;;;;;-146.87;100.00;60295.22;4929405;29;20285;-43
2023/08/31 02:00:53;;;;;;;22.02;19.92;;;;;;;-146.87;100.00;60295.22;4934379;29;20302;-45
2023/08/31 02:03:18;;;;;;;22.60;20.33;;;;;;;-146.87;100.00;60295.22;4936132;29;20281;-40
2023/08/31 02:05:44;;;;;;;22.55;20.27;;;;;;;-146.87;100.00;60295.22;4940896;29;20649;-43
2023/08/31 02:08:09;;;;;;;22.77;20.42;;;;;;;-146.87;100.00;60295.22;4944636;29;20642;-46
2023/08/31 02:10:35;;;;;;;22.23;19.85;;;;;;;-146.87;100.00;60295.22;4944208;29;20338;-42
2023/08/31 02:13:00;;;;;;;21.80;19.67;;;;;;;-146.87;100.00;60295.22;4944371;29;20179;-42
2023/08/31 02:15:26;;;;;;;20.23;18.23;;;;;;;-146.87;100.00;60295.22;4928884;29;20226;-45
2023/08/31 02:17:54;;;;;;;20.95;19.05;;;;;;;-146.87;100.00;60295.22;4944627;29;20650;-41
2023/08/31 02:20:20;;;;;;;19.95;18.05;;;;;;;-146.87;100.00;60295.22;4943723;29;20676;-41
2023/08/31 02:22:46;;;;;;;19.60;17.83;;;;;;;-146.87;100.00;60295.22;4941508;29;20270;-44
2023/08/31 02:25:12;;;;;;;21.13;19.13;;;;;;;-146.87;100.00;60295.22;4941153;29;20179;-42
2023/08/31 02:27:38;;;;;;;20.02;17.98;;;;;;;-146.87;100.00;60295.22;4948065;29;20186;-42
2023/08/31 02:30:04;;;;;;;18.55;16.77;;;;;;;-146.87;100.00;60295.22;4934135;29;20214;-43
2023/08/31 02:32:30;;;;;;;20.60;18.40;;;;;;;-146.87;100.00;60295.22;4945427;29;20167;-41
2023/08/31 02:34:56;;;;;;;20.35;18.38;;;;;;;-146.87;100.00;60295.22;4930925;29;20179;-43
2023/08/31 02:37:21;;;;;;;19.65;17.75;;;;;;;-146.87;100.00;60295.22;4930166;29;20716;-40
2023/08/31 02:39:47;;;;;;;20.27;18.30;;;;;;;-146.87;100.00;60295.22;4947432;29;20209;-42
2023/08/31 02:42:14;;;;;;;20.90;18.80;;;;;;;-146.87;100.00;60295.22;4941696;29;20759;-44
2023/08/31 02:44:39;;;;;;;21.20;19.00;;;;;;;-146.87;100.00;60295.22;4928117;29;20176;-42
2023/08/31 02:47:05;;;;;;;21.50;19.20;;;;;;;-146.87;100.00;60295.22;4939354;29;20184;-43
2023/08/31 02:49:30;;;;;;;21.67;19.58;;;;;;;-146.87;100.00;60295.22;4928058;29;20202;-43
2023/08/31 02:51:56;;;;;;;20.30;18.40;;;;;;;-146.87;100.00;60295.22;4945364;29;20280;-41
2023/08/31 02:54:21;;;;;;;22.10;19.80;;;;;;;-146.87;100.00;60295.22;4940405;29;20672;-41
2023/08/31 02:56:47;;;;;;;21.67;19.55;;;;;;;-146.87;100.00;60295.22;4943822;29;20222;-42
2023/08/31 02:59:13;;;;;;;22.48;20.08;;;;;;;-146.87;100.00;60295.22;4937483;29;20286;-41
2023/08/31 03:01:39;;;;;;;25.80;21.02;;;;;;;-146.87;100.00;60295.22;4929467;29;20614;-41
2023/08/31 03:04:05;;;;;;;22.02;19.73;;;;;;;-146.87;100.00;60295.22;4941728;29;20278;-42
2023/08/31 03:06:32;;;;;;;22.73;20.45;;;;;;;-146.87;100.00;60295.22;4942260;29;20179;-42
2023/08/31 03:08:58;;;;;;;22.27;19.20;;;;;;;-146.87;100.00;60295.22;4943764;29;20262;-42
2023/08/31 03:11:23;;;;;;;23.10;20.70;;;;;;;-146.87;100.00;60295.22;4946086;29;20197;-42
2023/08/31 03:13:49;;;;;;;23.35;20.90;;;;;;;-146.87;100.00;60295.22;4944909;29;20220;-41
2023/08/31 03:16:14;;;;;;;21.83;19.27;;;;;;;-146.87;100.00;60295.22;4934756;29;20183;-43
2023/08/31 03:18:41;;;;;;;19.73;17.77;;;;;;;-146.87;100.00;60295.22;4937218;29;20214;-45
2023/08/31 03:21:06;;;;;;;21.13;19.08;;;;;;;-146.87;100.00;60295.22;4947109;29;20249;-42
2023/08/31 03:23:32;;;;;;;22.90;20.50;;;;;;;-146.87;100.00;60295.22;4946587;29;20543;-41
2023/08/31 03:25:57;;;;;;;25.67;20.63;;;;;;;-146.87;100.00;60295.22;4942228;29;20630;-45
2023/08/31 03:28:26;;;;;;;24.08;21.58;;;;;;;-146.87;100.00;60295.22;4941649;29;20218;-46
2023/08/31 03:30:55;;;;;;;23.83;20.05;;;;;;;-146.87;100.00;60295.22;4933632;29;20249;-45
2023/08/31 03:33:21;;;;;;;22.52;19.65;;;;;;;-146.87;100.00;60295.22;4934117;29;20270;-40
2023/08/31 03:35:47;;;;;;;24.98;20.52;;;;;;;-146.87;100.00;60295.22;4938695;29;20528;-42
2023/08/31 03:38:13;;;;;;;23.00;20.60;;;;;;;-146.87;100.00;60295.22;4921336;29;20267;-42
2023/08/31 03:40:38;;;;;;;24.00;20.65;;;;;;;-146.87;100.00;60295.22;4941954;29;20309;-42
2023/08/31 03:43:05;;;;;;;23.60;20.85;;;;;;;-146.87;100.00;60295.22;4921865;29;20576;-46
2023/08/31 03:45:30;;;;;;;28.55;21.65;;;;;;;-146.87;100.00;60295.22;4937709;29;20253;-44
2023/08/31 03:47:56;;;;;;;25.20;21.98;;;;;;;-146.87;100.00;60295.22;4927330;29;20195;-42
2023/08/31 03:50:23;;;;;;;23.60;21.10;;;;;;;-146.87;100.00;60295.22;4941470;29;20669;-44
2023/08/31 03:52:48;;;;;;;25.00;21.98;;;;;;;-146.87;100.00;60295.22;4941107;29;20190;-45
2023/08/31 03:55:14;;;;;;;26.45;22.15;;;;;;;-146.87;100.00;60295.22;4931739;29;20183;-42
2023/08/31 03:57:39;;;;;;;23.52;21.13;;;;;;;-146.87;100.00;60295.22;4949876;29;20179;-46
2023/08/31 04:00:16;;;;;;;22.90;20.50;;;;;;;-146.87;100.00;60295.22;4933317;29;20300;-40
2023/08/31 04:02:44;;;;;;;22.67;20.27;;;;;;;-146.87;100.00;60295.22;4940788;29;20203;-42
2023/08/31 04:05:14;;;;;;;23.48;20.95;;;;;;;-146.87;100.00;60295.22;4930018;29;20589;-41
2023/08/31 04:07:42;;;;;;;28.20;21.17;;;;;;;-146.87;100.00;60295.22;4940768;29;20183;-43
2023/08/31 04:10:08;;;;;;;20.17;18.27;;;;;;;-146.87;100.00;60295.22;4941299;29;20203;-42
2023/08/31 04:12:34;;;;;;;24.42;21.08;;;;;;;-146.87;100.00;60295.22;4944003;29;20203;-41
2023/08/31 04:15:00;;;;;;;21.20;18.98;;;;;;;-146.87;100.00;60295.22;4936237;29;20178;-41
2023/08/31 04:17:25;;;;;;;19.42;17.30;;;;;;;-146.87;100.00;60295.22;4938387;29;20187;-42
2023/08/31 04:19:51;;;;;;;25.60;18.98;;;;;;;-146.87;100.00;60295.22;4927704;29;20668;-45
2023/08/31 04:22:17;;;;;;;22.40;18.58;;;;;;;-146.87;100.00;60295.22;4936341;29;20659;-41
2023/08/31 04:24:43;;;;;;;21.42;17.60;;;;;;;-146.87;100.00;60295.22;4940723;29;20642;-41
2023/08/31 04:27:08;;;;;;;21.90;18.02;;;;;;;-146.87;100.00;60295.22;4943275;29;20238;-42
2023/08/31 04:29:34;;;;;;;19.38;17.40;;;;;;;-146.87;100.00;60295.22;4939052;29;20329;-42
2023/08/31 04:31:59;;;;;;;23.17;17.77;;;;;;;-146.87;100.00;60295.22;4940889;29;20178;-40
2023/08/31 04:34:26;;;;;;;19.90;16.25;;;;;;;-146.87;100.00;60295.22;4942555;29;20179;-42
2023/08/31 04:36:52;;;;;;;20.05;17.13;;;;;;;-146.87;100.00;60295.22;4940373;29;20712;-42
2023/08/31 04:39:17;;;;;;;19.35;16.70;;;;;;;-146.87;100.00;60295.22;4942441;29;20231;-41
2023/08/31 04:41:43;;;;;;;18.90;15.35;;;;;;;-146.87;100.00;60295.22;4942678;29;20282;-42
2023/08/31 04:44:08;;;;;;;17.67;15.40;;;;;;;-146.87;100.00;60295.22;4929013;29;20267;-42
2023/08/31 04:46:34;;;;;;;19.02;15.80;;;;;;;-146.87;100.00;60295.22;4942728;29;20234;-41
2023/08/31 04:49:00;;;;;;;17.33;15.52;;;;;;;-146.87;100.00;60295.22;4939241;29;20211;-42
2023/08/31 04:51:35;;;;;;;16.92;15.15;;;;;;;-146.87;100.00;60295.22;4938995;29;20174;-44
2023/08/31 04:54:00;;;;;;;21.40;15.93;;;;;;;-146.87;100.00;60295.22;4939272;29;20186;-44
2023/08/31 04:56:32;;;;;;;15.15;13.55;;;;;;;-146.87;100.00;60295.22;4939555;29;20172;-43
2023/08/31 04:58:57;;;;;;;18.10;14.20;;;;;;;-146.87;100.00;60295.22;4978267;23;20264;-44
2023/08/31 05:01:23;;;;;;;17.63;13.43;;;;;;;-146.87;100.00;60295.22;4980356;28;20217;-45
2023/08/31 05:03:48;;;;;;;14.80;13.23;;;;;;;-146.87;100.00;60295.22;4988332;28;20367;-43
2023/08/31 05:06:14;;;;;;;15.90;14.13;;;;;;;-146.87;100.00;60295.22;4980931;28;20228;-43
2023/08/31 05:08:40;;;;;;;18.05;13.38;;;;;;;-146.87;100.00;60295.22;4978606;28;20185;-43
2023/08/31 05:11:05;;;;;;;16.58;12.77;;;;;;;-146.87;100.00;60295.22;4977801;28;20276;-44
2023/08/31 05:13:31;;;;;;;14.15;12.85;;;;;;;-146.87;100.00;60295.22;4984579;28;20557;-44
2023/08/31 05:15:56;;;;;;;13.98;11.88;;;;;;;-146.87;100.00;60295.22;4985691;28;20181;-43
2023/08/31 05:18:21;;;;;;;14.23;12.07;;;;;;;-146.87;100.00;60295.22;4978387;28;20174;-44
2023/08/31 05:20:48;;;;;;;12.95;11.32;;;;;;;-146.87;100.00;60295.22;4980132;28;20614;-43
2023/08/31 05:23:14;;;;;;;13.27;11.43;;;;;;;-146.87;100.00;60295.22;4977501;28;20201;-42
2023/08/31 05:25:44;;;;;;;11.95;10.75;;;;;;;-146.87;100.00;60295.22;4987152;28;20623;-44
2023/08/31 05:28:09;;;;;;;12.82;10.35;;;;;;;-146.87;100.00;60295.22;4982903;28;20647;-45
2023/08/31 05:30:35;;;;;;;14.95;11.27;;;;;;;-146.87;100.00;60295.22;4977189;28;20211;-44
2023/08/31 05:33:01;;;;;;;14.25;10.90;;;;;;;-146.87;100.00;60295.22;4991677;28;20196;-43
2023/08/31 05:35:27;;;;;;;12.13;10.90;;;;;;;-146.87;100.00;60295.22;4990242;28;20175;-44
2023/08/31 05:37:52;;;;;;;14.10;11.20;;;;;;;-146.87;100.00;60295.22;4988435;28;20618;-44
2023/08/31 05:40:18;;;;;;;11.30;10.23;;;;;;;-146.87;100.00;60295.22;4980964;28;20282;-44
2023/08/31 05:42:44;;;;;;;14.18;11.48;;;;;;;-146.87;100.00;60295.22;4985102;28;20212;-44
2023/08/31 05:45:09;;;;;;;12.27;11.15;;;;;;;-146.87;100.00;60295.22;4986893;28;20188;-44
2023/08/31 05:47:35;;;;;;;12.40;10.13;;;;;;;-146.87;100.00;60295.22;4969397;28;20665;-43
2023/08/31 05:50:01;;;;;;;17.58;11.00;;;;;;;-146.87;100.00;60295.22;4981560;28;20209;-44
2023/08/31 05:52:27;;;;;;;11.23;10.05;;;;;;;-146.87;100.00;60295.22;4983757;28;20174;-47
2023/08/31 05:54:53;;;;;;;11.20;10.02;;;;;;;-146.87;100.00;60295.22;4991287;28;20231;-44
2023/08/31 05:57:22;;;;;;;12.55;9.82;;;;;;;-146.87;100.00;60295.22;4993915;28;20197;-43
2023/08/31 05:59:48;;;;;;;11.25;9.35;;;;;;;-146.87;100.00;60295.22;4981903;28;20219;-43
2023/08/31 06:02:14;;;;;;;11.95;10.70;;;;;;;-146.87;100.00;60295.22;4987629;28;20305;-43
2023/08/31 06:04:40;;;;;;;11.32;9.82;;;;;;;-146.87;100.00;60295.22;4977713;28;20225;-45
2023/08/31 06:07:05;;;;;;;13.18;9.48;;;;;;;-146.87;100.00;60295.22;4985982;28;20174;-42
2023/08/31 06:09:31;;;;;;;10.70;9.43;;;;;;;-146.87;100.00;60295.22;4989842;28;20296;-45
2023/08/31 06:11:57;;;;;;;11.05;9.18;;;;;;;-146.87;100.00;60295.22;4987051;28;20169;-43
2023/08/31 06:14:22;;;;;;;10.40;9.27;;;;;;;-146.87;100.00;60295.22;4982241;28;20261;-42
2023/08/31 06:16:48;;;;;;;13.32;9.02;;;;;;;-146.87;100.00;60295.22;4979061;28;20567;-40
2023/08/31 06:19:15;;;;;;;9.32;8.40;;;;;;;-146.87;100.00;60295.22;4983007;28;20200;-44
2023/08/31 06:21:41;;;;;;;12.20;8.65;;;;;;;-146.87;100.00;60295.22;4989975;28;20248;-45
2023/08/31 06:24:09;;;;;;;14.27;9.18;;;;;;;-146.87;100.00;60295.22;4993821;28;20288;-43
2023/08/31 06:26:35;;;;;;;12.10;8.63;;;;;;;-146.87;100.00;60295.22;4970764;28;20190;-43
2023/08/31 06:29:03;;;;;;;8.35;7.55;;;;;;;-146.87;100.00;60295.22;4982456;28;20249;-44
2023/08/31 06:31:28;;;;;;;10.90;7.57;;;;;;;-146.87;100.00;60295.22;4985554;28;20268;-43
2023/08/31 06:33:54;;;;;;;8.40;6.50;;;;;;;-146.87;100.00;60295.22;4984117;28;20324;-45
2023/08/31 06:36:20;;;;;;;7.20;6.55;;;;;;;-146.87;100.00;60295.22;4982801;28;20189;-41
2023/08/31 06:38:45;;;;;;;7.18;6.43;;;;;;;-146.87;100.00;60295.22;4991418;28;20177;-40
2023/08/31 06:41:11;;;;;;;6.47;5.78;;;;;;;-146.87;100.00;60295.22;4966482;28;20619;-43
2023/08/31 06:43:36;;;;;;;7.18;5.13;;;;;;;-146.87;100.00;60295.22;4984132;28;20202;-43
2023/08/31 06:46:02;;;;;;;7.57;5.13;;;;;;;-146.87;100.00;60295.22;4986829;28;20546;-43
2023/08/31 06:48:27;;;;;;;8.10;4.72;;;;;;;-146.87;100.00;60295.22;4986338;28;20224;-43
2023/08/31 06:50:53;;;;;;;6.38;4.40;;;;;;;-146.87;100.00;60295.22;4982606;28;20254;-43
2023/08/31 06:53:18;;;;;;;6.22;3.97;;;;;;;-146.87;100.00;60295.22;4985944;28;20268;-43
2023/08/31 06:55:44;;;;;;;13.52;4.28;;;;;;;-146.87;100.00;60295.22;4984681;28;20181;-43
2023/08/31 06:58:10;;;;;;;4.60;3.53;;;;;;;-146.87;100.00;60295.22;4982672;28;20186;-43
2023/08/31 07:00:35;;;;;;;6.45;4.30;;;;;;;-146.87;100.00;60295.22;4989457;28;20239;-43
2023/08/31 07:03:01;;;;;;;6.82;4.35;;;;;;;-146.87;100.00;60295.22;4987865;28;20310;-43
2023/08/31 07:05:27;;;;;;;6.38;4.10;;;;;;;-146.87;100.00;60295.22;4979751;28;20619;-43
2023/08/31 07:07:54;;;;;;;6.47;3.78;;;;;;;-146.87;100.00;60295.22;4980229;28;20205;-42
2023/08/31 07:10:20;;;;;;;4.25;2.97;;;;;;;-146.87;100.00;60295.22;4987407;28;20259;-43
2023/08/31 07:12:45;;;;;;;4.30;2.80;;;;;;;-146.87;100.00;60295.22;4985761;28;20162;-43
2023/08/31 07:15:11;;;;;;;6.40;2.80;;;;;;;-146.87;100.00;60295.22;4983019;28;20174;-43
2023/08/31 07:17:36;;;;;;;4.63;2.10;;;;;;;-146.87;100.00;60295.22;4981427;28;20665;-43
2023/08/31 07:20:05;;;;;;;4.40;2.10;;;;;;;-146.87;100.00;60295.22;4981905;28;20201;-44
2023/08/31 07:22:33;;;;;;;3.78;2.35;;;;;;;-146.87;100.00;60295.22;4975073;28;20214;-45
2023/08/31 07:24:59;;;;;;;5.57;2.10;;;;;;;-146.87;100.00;60295.22;4984526;28;20739;-45
2023/08/31 07:27:24;;;;;;;6.00;2.03;;;;;;;-146.87;100.00;60295.22;4982389;28;20260;-42
2023/08/31 07:29:50;;;;;;;5.05;2.10;;;;;;;-146.87;100.00;60295.22;4972236;28;20205;-45
2023/08/31 07:32:15;;;;;;;7.40;2.00;;;;;;;-146.87;100.00;60295.22;4980884;28;20296;-42
2023/08/31 07:34:41;;;;;;;3.17;1.70;;;;;;;-146.87;100.00;60295.22;4987606;28;20216;-43
2023/08/31 07:37:07;;;;;;;4.15;2.10;;;;;;;-146.87;100.00;60295.22;4984470;28;20197;-44
2023/08/31 07:39:32;;;;;;;5.22;2.20;;;;;;;-146.87;100.00;60295.22;4987385;28;20200;-44
2023/08/31 07:42:01;;;;;;;3.15;1.85;;;;;;;-146.87;100.00;60295.22;4978427;28;20210;-47
2023/08/31 07:44:26;;;;;;;5.05;1.80;;;;;;;-146.87;100.00;60295.22;4983077;28;20557;-45
2023/08/31 07:46:52;;;;;;;4.90;1.90;;;;;;;-146.87;100.00;60295.22;4968716;28;20174;-43
2023/08/31 07:49:17;;;;;;;2.88;2.08;;;;;;;-146.87;100.00;60295.22;4984915;28;20228;-45
2023/08/31 07:51:42;;;;;;;2.45;2.10;;;;;;;-146.87;100.00;60295.22;4987668;28;20170;-47
2023/08/31 07:54:08;;;;;;;3.55;1.85;;;;;;;-146.87;100.00;60295.22;4986085;28;20631;-43
2023/08/31 07:56:33;;;;;;;6.07;2.58;;;;;;;-146.87;100.00;60295.22;4986316;28;20186;-43
2023/08/31 07:58:59;;;;;;;2.92;1.83;;;;;;;-146.87;100.00;60295.22;4981628;28;20185;-46
2023/08/31 08:01:25;;;;;;;6.88;2.35;;;;;;;-146.87;100.00;60295.22;4982782;28;20194;-43
2023/08/31 08:03:50;;;;;;;6.30;1.98;;;;;;;-146.87;100.00;60295.22;4977160;28;20968;-44
2023/08/31 08:06:15;;;;;;;3.70;1.73;;;;;;;-146.87;100.00;60295.22;4985502;28;20220;-42
2023/08/31 08:08:41;;;;;;;8.80;1.45;;;;;;;-146.87;100.00;60295.22;4980455;28;20198;-41
2023/08/31 08:11:07;;;;;;;4.95;1.50;;;;;;;-146.87;100.00;60295.22;4981590;28;20193;-43
2023/08/31 08:13:32;;;;;;;1.60;1.10;;;;;;;-146.87;100.00;60295.22;4991553;28;20227;-46
2023/08/31 08:15:58;;;;;;;4.88;1.15;;;;;;;-146.87;100.00;60295.22;4987541;28;20768;-45
2023/08/31 08:18:23;;;;;;;4.20;1.30;;;;;;;-146.87;100.00;60295.22;4988456;28;20227;-45
2023/08/31 08:20:50;;;;;;;5.18;1.45;;;;;;;-146.87;100.00;60295.22;4986840;28;20296;-43
2023/08/31 08:23:16;;;;;;;4.60;1.15;;;;;;;-146.87;100.00;60295.22;4983931;28;20193;-45
2023/08/31 08:25:41;;;;;;;3.85;1.15;;;;;;;-146.87;100.00;60295.22;4986540;28;20186;-42
2023/08/31 08:28:07;;;;;;;2.08;0.95;;;;;;;-146.87;100.00;60295.22;4987928;28;20200;-44
2023/08/31 08:30:32;;;;;;;3.40;1.10;;;;;;;-146.87;100.00;60295.22;4985260;28;20213;-46
2023/08/31 08:32:58;;;;;;;4.90;1.20;;;;;;;-146.87;100.00;60295.22;4985026;28;20269;-44
2023/08/31 08:35:24;;;;;;;6.63;1.23;;;;;;;-146.87;100.00;60295.22;4983298;28;20192;-43
2023/08/31 08:37:50;;;;;;;3.78;1.00;;;;;;;-146.87;100.00;60295.22;4983641;28;20185;-43
2023/08/31 08:40:16;;;;;;;2.20;1.13;;;;;;;-146.87;100.00;60295.22;4984694;28;20291;-42
2023/08/31 08:42:42;;;;;;;6.30;1.23;;;;;;;-146.87;100.00;60295.22;4980189;28;20730;-44
2023/08/31 08:45:17;;;;;;;2.97;1.33;;;;;;;-146.87;100.00;60295.22;4976873;28;20714;-46
2023/08/31 08:47:46;;;;;;;2.90;1.05;;;;;;;-146.87;100.00;60295.22;4978307;28;20204;-48
2023/08/31 08:50:12;;;;;;;3.33;1.15;;;;;;;-146.87;100.00;60295.22;4977141;28;20295;-45
2023/08/31 08:52:40;;;;;;;2.38;0.95;;;;;;;-146.87;100.00;60295.22;4974527;28;20170;-45
2023/08/31 08:55:06;;;;;;;2.88;1.17;;;;;;;-146.87;100.00;60295.22;4978486;28;20259;-45
2023/08/31 08:57:32;;;;;;;2.60;0.98;;;;;;;-146.87;100.00;60295.22;4980752;28;20205;-45
2023/08/31 08:59:58;;;;;;;5.43;0.93;;;;;;;-146.87;100.00;60295.22;4976464;28;20670;-46
2023/08/31 09:02:24;;;;;;;2.42;0.90;;;;;;;-146.87;100.00;60295.22;4977963;28;20332;-46
2023/08/31 09:04:54;;;;;;;6.18;0.93;;;;;;;-146.87;100.00;60295.22;4977040;28;20177;-47
2023/08/31 09:07:21;;;;;;;4.00;0.93;;;;;;;-146.87;100.00;60295.22;4980743;28;20172;-46
2023/08/31 09:09:54;;;;;;;2.17;1.02;;;;;;;-146.87;100.00;60295.22;4978147;28;20202;-47
2023/08/31 09:12:24;;;;;;;2.33;0.85;;;;;;;-146.87;100.00;60295.22;4978750;28;20177;-47
2023/08/31 09:15:07;;;;;;;5.13;1.25;;;;;;;-146.87;100.00;60295.22;4980202;28;20668;-47
2023/08/31 09:17:41;;;;;;;3.85;1.05;;;;;;;-146.87;100.00;60295.22;4979951;28;20190;-46
2023/08/31 09:20:08;;;;;;;3.28;0.88;;;;;;;-146.87;100.00;60295.22;4980778;28;20193;-47
2023/08/31 09:22:34;;;;;;;2.42;1.02;;;;;;;-146.87;100.00;60295.22;4976903;28;20201;-45
2023/08/31 09:25:00;;;;;;;3.83;1.00;;;;;;;-146.87;100.00;60295.22;4965264;28;20236;-46
2023/08/31 09:27:25;;;;;;;3.55;1.27;;;;;;;-146.87;100.00;60295.22;4976844;28;20185;-47
2023/08/31 09:29:55;;;;;;;3.17;1.10;;;;;;;-146.87;100.00;60295.22;4979504;28;20206;-45
2023/08/31 09:32:20;;;;;;;2.10;0.80;;;;;;;-146.87;100.00;60295.22;4979475;28;20531;-46
2023/08/31 09:34:47;;;;;;;3.25;1.13;;;;;;;-146.87;100.00;60295.22;4976113;28;20695;-46
2023/08/31 09:37:16;;;;;;;3.72;1.23;;;;;;;-146.87;100.00;60295.22;4970957;28;20254;-47
2023/08/31 09:39:42;;;;;;;3.28;1.00;;;;;;;-146.87;100.00;60295.22;4977523;28;20318;-46
2023/08/31 09:42:08;;;;;;;2.13;1.02;;;;;;;-146.87;100.00;60295.22;4980475;28;20188;-46
2023/08/31 09:44:34;;;;;;;4.10;1.35;;;;;;;-146.87;100.00;60295.22;4978122;28;20179;-46
2023/08/31 09:47:00;;;;;;;2.30;1.02;;;;;;;-146.87;100.00;60295.22;4979573;28;20165;-48
2023/08/31 09:49:27;;;;;;;2.70;0.77;;;;;;;-146.87;100.00;60295.22;4963312;28;20214;-47
2023/08/31 09:51:52;;;;;;;2.92;1.10;;;;;;;-146.87;100.00;60295.22;4978824;28;20247;-47
2023/08/31 09:54:22;;;;;;;4.28;1.20;;;;;;;-146.87;100.00;60295.22;4968336;28;20189;-46
2023/08/31 09:56:48;;;;;;;4.60;1.40;;;;;;;-146.87;100.00;60295.22;4980090;28;20189;-47
2023/08/31 09:59:15;;;;;;;5.43;1.00;;;;;;;-146.87;100.00;60295.22;4975571;28;20201;-48
2023/08/31 10:01:42;;;;;;;2.95;0.95;;;;;;;-146.87;100.00;60295.22;4977109;28;20569;-46
2023/08/31 10:04:08;;;;;;;2.42;1.10;;;;;;;-146.87;100.00;60295.22;4975454;28;20312;-49
2023/08/31 10:06:41;;;;;;;4.45;1.23;;;;;;;-146.87;100.00;60295.22;4980524;28;20565;-48
2023/08/31 10:09:17;;;;;;;1.85;0.93;;;;;;;-146.87;100.00;60295.22;4979251;28;20221;-45
2023/08/31 10:11:43;;;;;;;4.80;1.35;;;;;;;-146.87;100.00;60295.22;4977374;28;20596;-49
2023/08/31 10:14:10;;;;;;;5.18;1.10;;;;;;;-146.87;100.00;60295.22;4977685;28;20561;-46
2023/08/31 10:16:39;;;;;;;2.15;1.10;;;;;;;-146.87;100.00;60295.22;4977515;28;20193;-46
2023/08/31 10:19:05;;;;;;;3.92;1.20;;;;;;;-146.87;100.00;60295.22;4983396;28;20208;-49
2023/08/31 10:21:30;;;;;;;1.85;0.90;;;;;;;-146.87;100.00;60295.22;4984390;28;20177;-47
2023/08/31 10:23:56;;;;;;;2.83;1.23;;;;;;;-146.87;100.00;60295.22;4981135;28;20202;-46
2023/08/31 10:26:25;;;;;;;2.55;0.90;;;;;;;-146.87;100.00;60295.22;4978348;28;20534;-49
2023/08/31 10:28:51;;;;;;;2.20;0.70;;;;;;;-146.87;100.00;60295.22;4980994;28;20619;-46
2023/08/31 10:31:18;;;;;;;2.15;0.90;;;;;;;-146.87;100.00;60295.22;4986155;28;20209;-46
2023/08/31 10:34:03;;;;;;;1.92;0.73;;;;;;;-146.87;100.00;60295.22;4982853;28;20185;-45
2023/08/31 10:36:36;;;;;;;2.65;1.00;;;;;;;-146.87;100.00;60295.22;4979238;28;20189;-47
2023/08/31 10:39:08;;;;;;;2.83;0.90;;;;;;;-146.87;100.00;60295.22;4982406;28;20205;-46
2023/08/31 10:41:36;;;;;;;2.67;0.70;;;;;;;-146.87;100.00;60295.22;4963763;28;20379;-45
2023/08/31 10:44:02;;;;;;;3.03;0.90;;;;;;;-146.87;100.00;60295.22;4979157;28;20220;-46
2023/08/31 10:46:42;;;;;;;1.75;1.10;;;;;;;-146.87;100.00;60295.22;4978247;28;20185;-47
2023/08/31 10:49:10;;;;;;;2.55;1.17;;;;;;;-146.87;100.00;60295.22;4981532;28;20600;-46
2023/08/31 10:51:39;;;;;;;1.95;0.95;;;;;;;-146.87;100.00;60295.22;4983311;28;20205;-47
2023/08/31 10:54:18;;;;;;;2.53;1.00;;;;;;;-146.87;100.00;60295.22;4979165;28;20378;-48
2023/08/31 10:56:56;;;;;;;3.38;0.90;;;;;;;-146.87;100.00;60295.22;4981598;28;20249;-47
2023/08/31 10:59:23;;;;;;;4.30;0.98;;;;;;;-146.87;100.00;60295.22;4970872;28;20304;-44